Time;durP1;ratioP1;P1;durP2;ratioP2;P2;SDS_P1;SDS_P2;PMS_P1;PMS_P2;Temp;Humidity;BMP_temperature;BMP_pressure;BME280_temperature;BME280_humidity;BME280_pressure;Samples;Min_cycle;Max_cycle;Signal;HPM_P1;HPM_P2
2023/05/07 00:01:46;;;;;;;1.35;1.25;;;21.70;73.60;;;;;;5032424;28;20251;-56
2023/05/07 00:04:13;;;;;;;1.10;0.98;;;21.70;73.50;;;;;;5033019;28;20204;-56
2023/05/07 00:06:41;;;;;;;2.47;1.00;;;21.70;73.60;;;;;;5042078;28;20196;-58
2023/05/07 00:09:08;;;;;;;1.50;1.40;;;21.70;73.50;;;;;;5034184;28;20245;-56
2023/05/07 00:11:35;;;;;;;1.55;1.00;;;21.70;73.60;;;;;;5031915;28;20294;-59
2023/05/07 00:14:01;;;;;;;1.63;1.52;;;21.70;73.50;;;;;;5032942;28;20192;-55
2023/05/07 00:16:28;;;;;;;1.38;1.27;;;21.60;73.40;;;;;;5038756;28;20200;-53
2023/05/07 00:18:55;;;;;;;1.63;1.10;;;21.70;73.40;;;;;;5036206;28;20258;-56
2023/05/07 00:21:22;;;;;;;1.60;1.10;;;21.70;73.40;;;;;;5035906;28;20482;-55
2023/05/07 00:23:50;;;;;;;1.45;1.33;;;21.70;73.40;;;;;;5026492;28;20635;-58
2023/05/07 00:26:17;;;;;;;1.20;1.10;;;21.60;73.30;;;;;;5030066;28;20266;-56
2023/05/07 00:28:43;;;;;;;1.17;0.98;;;21.60;73.30;;;;;;5027403;28;20207;-53
2023/05/07 00:31:10;;;;;;;1.40;1.08;;;21.70;73.40;;;;;;5026363;28;20549;-54
2023/05/07 00:33:37;;;;;;;2.45;1.17;;;21.70;73.40;;;;;;5033230;28;20204;-57
2023/05/07 00:36:04;;;;;;;1.35;1.20;;;21.60;73.30;;;;;;5033895;28;20199;-59
2023/05/07 00:38:31;;;;;;;1.30;1.00;;;21.70;73.40;;;;;;5034246;28;20205;-53
2023/05/07 00:40:59;;;;;;;1.30;1.20;;;21.60;73.30;;;;;;5035340;28;20227;-56
2023/05/07 00:43:25;;;;;;;2.70;1.00;;;21.60;73.30;;;;;;5033464;28;20200;-59
2023/05/07 00:45:52;;;;;;;1.40;1.08;;;21.60;73.20;;;;;;5024146;28;20224;-58
2023/05/07 00:48:19;;;;;;;1.10;1.00;;;21.60;73.20;;;;;;5026736;28;20211;-58
2023/05/07 00:50:47;;;;;;;1.55;1.23;;;21.60;73.30;;;;;;5033041;28;20235;-53
2023/05/07 00:53:13;;;;;;;1.35;1.10;;;21.60;73.30;;;;;;5032438;28;20568;-55
2023/05/07 00:55:40;;;;;;;1.70;1.38;;;21.60;73.30;;;;;;5022643;28;20196;-54
2023/05/07 00:58:09;;;;;;;1.20;1.05;;;21.60;73.20;;;;;;5032869;28;20207;-56
2023/05/07 01:00:36;;;;;;;1.23;1.13;;;21.60;73.30;;;;;;5025192;28;20242;-63
2023/05/07 01:03:03;;;;;;;1.85;1.30;;;21.60;73.30;;;;;;5035701;28;20235;-59
2023/05/07 01:05:31;;;;;;;1.30;1.05;;;21.60;73.20;;;;;;5025939;28;20197;-58
2023/05/07 01:07:58;;;;;;;1.35;1.25;;;21.60;74.00;;;;;;5032049;28;20275;-54
2023/05/07 01:10:25;;;;;;;1.58;1.10;;;21.60;73.20;;;;;;5030922;28;20279;-56
2023/05/07 01:12:54;;;;;;;1.10;1.00;;;21.60;73.20;;;;;;5031529;28;20200;-54
2023/05/07 01:15:22;;;;;;;1.20;0.90;;;21.60;73.20;;;;;;5028053;28;20608;-52
2023/05/07 01:17:49;;;;;;;1.30;1.20;;;21.60;73.20;;;;;;5033921;28;20246;-51
2023/05/07 01:20:16;;;;;;;1.13;1.02;;;21.60;73.20;;;;;;5033988;28;20204;-55
2023/05/07 01:22:44;;;;;;;1.10;1.00;;;21.60;73.20;;;;;;5024717;28;20216;-52
2023/05/07 01:25:11;;;;;;;1.25;1.05;;;21.60;73.20;;;;;;5031910;28;20195;-51
2023/05/07 01:27:37;;;;;;;2.08;1.10;;;21.60;73.20;;;;;;5036089;28;20196;-57
2023/05/07 01:30:04;;;;;;;2.38;1.08;;;21.60;73.30;;;;;;5028980;28;20279;-55
2023/05/07 01:32:36;;;;;;;1.75;0.90;;;21.60;73.30;;;;;;5036749;28;20664;-59
2023/05/07 01:35:06;;;;;;;1.50;0.95;;;21.50;73.30;;;;;;5039146;28;20560;-54
2023/05/07 01:37:33;;;;;;;1.08;0.90;;;21.50;73.10;;;;;;5026471;28;20192;-53
2023/05/07 01:40:03;;;;;;;1.50;1.00;;;21.50;73.10;;;;;;5028087;28;20196;-54
2023/05/07 01:42:30;;;;;;;1.17;1.08;;;21.50;73.20;;;;;;5028789;28;20662;-57
2023/05/07 01:44:57;;;;;;;1.77;1.10;;;21.50;73.10;;;;;;5030092;28;20200;-55
2023/05/07 01:47:24;;;;;;;1.10;1.00;;;21.50;73.10;;;;;;5028682;28;20976;-53
2023/05/07 01:49:51;;;;;;;1.20;1.10;;;21.50;73.10;;;;;;5030690;28;20615;-52
2023/05/07 01:52:18;;;;;;;1.40;0.80;;;21.50;73.10;;;;;;5028089;28;20266;-57
2023/05/07 01:54:45;;;;;;;1.15;0.98;;;21.50;73.20;;;;;;5029405;28;20200;-55
2023/05/07 01:57:13;;;;;;;1.40;1.10;;;21.50;73.10;;;;;;5032475;28;20194;-54
2023/05/07 01:59:39;;;;;;;1.58;1.10;;;21.50;73.20;;;;;;5028203;28;20246;-54
2023/05/07 02:02:06;;;;;;;1.25;1.10;;;21.50;73.10;;;;;;5033519;28;20714;-53
2023/05/07 02:04:32;;;;;;;1.27;0.80;;;21.50;73.20;;;;;;5029431;28;20714;-51
2023/05/07 02:06:59;;;;;;;1.20;1.10;;;21.50;73.20;;;;;;5027396;28;20612;-51
2023/05/07 02:09:26;;;;;;;1.60;1.05;;;21.50;73.10;;;;;;5027002;28;21041;-55
2023/05/07 02:11:52;;;;;;;1.40;1.10;;;21.50;73.10;;;;;;5030524;28;20648;-55
2023/05/07 02:14:21;;;;;;;1.30;1.00;;;21.50;73.20;;;;;;5029238;28;20215;-57
2023/05/07 02:16:47;;;;;;;1.00;0.90;;;21.50;73.20;;;;;;5035316;28;20214;-53
2023/05/07 02:19:14;;;;;;;1.65;1.02;;;21.40;73.00;;;;;;5026519;28;20259;-57
2023/05/07 02:21:41;;;;;;;1.30;1.20;;;21.50;73.20;;;;;;5026061;28;20273;-55
2023/05/07 02:24:07;;;;;;;1.10;0.80;;;21.40;73.00;;;;;;5027387;28;20200;-51
2023/05/07 02:26:34;;;;;;;1.10;1.00;;;21.50;73.20;;;;;;5032690;28;20250;-53
2023/05/07 02:29:01;;;;;;;1.35;1.15;;;21.40;72.90;;;;;;5035275;28;20197;-51
2023/05/07 02:31:29;;;;;;;1.10;1.00;;;21.50;73.10;;;;;;5031186;28;20199;-50
2023/05/07 02:33:55;;;;;;;1.00;0.82;;;21.40;72.90;;;;;;5028071;28;20561;-54
2023/05/07 02:36:22;;;;;;;1.30;1.20;;;21.40;73.00;;;;;;5040139;28;20199;-54
2023/05/07 02:38:49;;;;;;;1.30;1.10;;;21.50;73.20;;;;;;5026058;28;20207;-54
2023/05/07 02:41:15;;;;;;;1.35;1.25;;;21.40;73.00;;;;;;5035484;28;20241;-55
2023/05/07 02:43:42;;;;;;;1.17;1.00;;;21.40;73.00;;;;;;5028741;28;20269;-60
2023/05/07 02:46:10;;;;;;;1.23;1.13;;;21.40;73.00;;;;;;5023234;28;20200;-53
2023/05/07 02:48:38;;;;;;;1.15;0.90;;;21.40;73.00;;;;;;5025998;28;20200;-53
2023/05/07 02:51:06;;;;;;;0.90;0.80;;;21.40;73.00;;;;;;5030744;28;20199;-57
2023/05/07 02:53:33;;;;;;;0.90;0.70;;;21.40;73.00;;;;;;5028588;28;20288;-57
2023/05/07 02:56:01;;;;;;;2.35;0.93;;;21.40;73.00;;;;;;5029674;28;20195;-56
2023/05/07 02:58:28;;;;;;;1.00;0.80;;;21.40;73.00;;;;;;5029161;28;20200;-55
2023/05/07 03:00:55;;;;;;;1.30;1.10;;;21.40;73.00;;;;;;5027447;28;20631;-58
2023/05/07 03:03:22;;;;;;;1.60;1.50;;;21.40;73.00;;;;;;5031904;28;20282;-51
2023/05/07 03:05:50;;;;;;;1.55;1.00;;;21.40;73.00;;;;;;5023218;28;20196;-54
2023/05/07 03:08:16;;;;;;;1.40;1.02;;;21.40;73.00;;;;;;5024335;28;20664;-53
2023/05/07 03:10:43;;;;;;;1.33;1.00;;;21.40;73.00;;;;;;5029090;28;20257;-53
2023/05/07 03:13:10;;;;;;;1.00;0.90;;;21.40;73.00;;;;;;5039954;28;20277;-52
2023/05/07 03:15:37;;;;;;;1.42;1.00;;;21.40;73.00;;;;;;5031165;28;20195;-52
2023/05/07 03:18:04;;;;;;;1.42;1.33;;;21.40;73.00;;;;;;5029015;28;20707;-51
2023/05/07 03:20:30;;;;;;;1.67;1.30;;;21.40;73.00;;;;;;5029296;28;20196;-56
2023/05/07 03:22:58;;;;;;;1.00;0.90;;;21.40;73.10;;;;;;5025435;28;20314;-55
2023/05/07 03:25:25;;;;;;;1.30;1.20;;;21.40;73.00;;;;;;5027910;28;20266;-52
2023/05/07 03:27:52;;;;;;;0.98;0.80;;;21.40;73.00;;;;;;5031507;28;20204;-56
2023/05/07 03:30:22;;;;;;;1.40;0.98;;;21.40;73.00;;;;;;5027000;28;20200;-58
2023/05/07 03:32:48;;;;;;;1.20;1.00;;;21.40;73.10;;;;;;5029717;28;20630;-57
2023/05/07 03:35:15;;;;;;;0.98;0.88;;;21.40;73.00;;;;;;5031900;28;20254;-54
2023/05/07 03:37:42;;;;;;;1.10;0.98;;;21.30;72.90;;;;;;5038108;28;20242;-53
2023/05/07 03:40:12;;;;;;;1.45;1.20;;;21.40;73.00;;;;;;5024429;28;20266;-57
2023/05/07 03:42:38;;;;;;;1.20;0.93;;;21.40;73.00;;;;;;5037345;28;20246;-52
2023/05/07 03:45:06;;;;;;;1.00;0.90;;;21.30;72.90;;;;;;5032087;28;20591;-57
2023/05/07 03:47:33;;;;;;;1.30;1.00;;;21.30;73.00;;;;;;5018016;28;20570;-55
2023/05/07 03:49:59;;;;;;;1.40;1.10;;;21.30;72.90;;;;;;5036191;28;20590;-55
2023/05/07 03:52:26;;;;;;;1.33;1.23;;;21.40;73.10;;;;;;5023319;28;20296;-55
2023/05/07 03:54:53;;;;;;;1.10;0.98;;;21.30;73.00;;;;;;5031008;28;20279;-58
2023/05/07 03:57:22;;;;;;;1.25;1.02;;;21.30;73.00;;;;;;5032530;28;20195;-54
2023/05/07 03:59:48;;;;;;;1.08;0.88;;;21.30;73.00;;;;;;5033810;28;20666;-50
2023/05/07 04:02:15;;;;;;;1.08;0.90;;;21.30;73.00;;;;;;5030708;28;20215;-56
2023/05/07 04:04:42;;;;;;;1.40;1.00;;;21.30;73.10;;;;;;5033575;28;20322;-51
2023/05/07 04:07:08;;;;;;;1.08;0.95;;;21.30;73.00;;;;;;5035925;28;20704;-51
2023/05/07 04:09:35;;;;;;;1.10;0.90;;;21.30;73.10;;;;;;5031471;28;20704;-54
2023/05/07 04:12:02;;;;;;;1.00;0.90;;;21.30;73.20;;;;;;5028704;28;20638;-54
2023/05/07 04:14:31;;;;;;;1.17;1.00;;;21.30;73.20;;;;;;5036968;28;20639;-59
2023/05/07 04:16:58;;;;;;;1.20;1.05;;;21.30;73.20;;;;;;5029525;28;20208;-54
2023/05/07 04:19:25;;;;;;;1.10;0.90;;;21.30;73.20;;;;;;5037529;28;20245;-58
2023/05/07 04:21:52;;;;;;;1.15;0.90;;;21.30;73.20;;;;;;5033539;28;20236;-52
2023/05/07 04:24:18;;;;;;;1.10;1.00;;;21.30;73.40;;;;;;5037565;28;20686;-52
2023/05/07 04:26:45;;;;;;;1.10;0.90;;;21.30;73.40;;;;;;5036778;28;20196;-58
2023/05/07 04:29:12;;;;;;;1.30;1.10;;;21.30;73.30;;;;;;5036444;28;20200;-57
2023/05/07 04:31:40;;;;;;;1.20;1.10;;;21.30;73.20;;;;;;5035789;28;20215;-51
2023/05/07 04:34:07;;;;;;;1.10;0.93;;;21.30;73.40;;;;;;5027052;28;20739;-54
2023/05/07 04:36:33;;;;;;;1.30;0.90;;;21.20;73.30;;;;;;5030250;28;20214;-54
2023/05/07 04:39:00;;;;;;;1.23;1.13;;;21.30;73.40;;;;;;5031594;28;20682;-55
2023/05/07 04:41:27;;;;;;;1.20;1.10;;;21.30;73.30;;;;;;5033798;28;20569;-54
2023/05/07 04:43:54;;;;;;;1.20;1.00;;;21.30;73.30;;;;;;5030939;28;20200;-54
2023/05/07 04:46:21;;;;;;;1.63;1.13;;;21.20;73.20;;;;;;5023964;28;20310;-55
2023/05/07 04:48:49;;;;;;;1.40;1.10;;;21.20;73.40;;;;;;5030520;28;20262;-56
2023/05/07 04:51:15;;;;;;;1.38;1.08;;;21.30;73.40;;;;;;5030751;28;20196;-59
2023/05/07 04:53:42;;;;;;;1.10;1.00;;;21.30;73.40;;;;;;5028015;28;20258;-57
2023/05/07 04:56:09;;;;;;;1.25;1.15;;;21.30;73.50;;;;;;5030338;28;20630;-54
2023/05/07 04:58:36;;;;;;;1.13;1.02;;;21.20;73.40;;;;;;5026138;28;20579;-53
2023/05/07 05:01:03;;;;;;;1.20;1.10;;;21.20;73.40;;;;;;5026374;28;20204;-59
2023/05/07 05:03:30;;;;;;;1.38;1.10;;;21.20;74.10;;;;;;5036826;28;20222;-55
2023/05/07 05:05:59;;;;;;;1.17;1.00;;;21.20;74.20;;;;;;5028289;28;20601;-50
2023/05/07 05:08:26;;;;;;;1.10;1.00;;;21.20;73.40;;;;;;5032339;28;20215;-55
2023/05/07 05:10:53;;;;;;;1.10;0.90;;;21.20;73.40;;;;;;5030161;28;20258;-53
2023/05/07 05:13:20;;;;;;;1.30;1.00;;;21.20;73.40;;;;;;5032340;28;20211;-56
2023/05/07 05:15:46;;;;;;;1.20;0.95;;;21.20;73.50;;;;;;5027265;28;20405;-56
2023/05/07 05:18:13;;;;;;;1.10;0.90;;;21.20;73.40;;;;;;5030093;28;20200;-52
2023/05/07 05:20:40;;;;;;;1.27;1.00;;;21.20;73.40;;;;;;5027980;28;20667;-53
2023/05/07 05:23:09;;;;;;;1.52;0.93;;;21.20;73.20;;;;;;5034334;28;20236;-58
2023/05/07 05:25:37;;;;;;;1.15;0.90;;;21.20;73.20;;;;;;5029628;28;20204;-51
2023/05/07 05:28:04;;;;;;;1.00;0.90;;;21.30;73.20;;;;;;5029748;28;20208;-55
2023/05/07 05:30:30;;;;;;;1.00;0.73;;;21.30;73.30;;;;;;5029748;28;20196;-55
2023/05/07 05:32:57;;;;;;;1.02;0.90;;;21.30;73.40;;;;;;5033747;28;20258;-57
2023/05/07 05:35:23;;;;;;;1.13;1.02;;;21.30;73.30;;;;;;5036654;28;20200;-58
2023/05/07 05:37:50;;;;;;;1.10;1.00;;;21.40;73.40;;;;;;5031564;28;20246;-53
2023/05/07 05:40:18;;;;;;;1.10;0.90;;;21.40;73.40;;;;;;5023970;28;20200;-57
2023/05/07 05:42:45;;;;;;;1.30;1.10;;;21.40;73.20;;;;;;5030679;28;20208;-53
2023/05/07 05:45:12;;;;;;;1.50;1.25;;;21.40;73.30;;;;;;5028922;28;20192;-55
2023/05/07 05:47:39;;;;;;;1.08;0.98;;;21.40;73.20;;;;;;5029641;28;20254;-58
2023/05/07 05:50:07;;;;;;;0.90;0.70;;;21.40;73.10;;;;;;5031856;28;20784;-56
2023/05/07 05:52:33;;;;;;;1.30;1.15;;;21.40;73.20;;;;;;5036564;28;20233;-54
2023/05/07 05:55:00;;;;;;;1.30;1.00;;;21.50;73.30;;;;;;5026860;28;20205;-57
2023/05/07 05:57:28;;;;;;;0.90;0.70;;;21.50;73.40;;;;;;5025342;28;20200;-62
2023/05/07 05:59:55;;;;;;;1.00;0.80;;;21.50;73.30;;;;;;5025544;28;20676;-54
2023/05/07 06:02:21;;;;;;;1.10;0.80;;;21.50;73.30;;;;;;5035659;28;20485;-50
2023/05/07 06:04:48;;;;;;;1.00;0.90;;;21.60;73.40;;;;;;5028861;28;20196;-58
2023/05/07 06:07:15;;;;;;;1.10;0.90;;;21.60;73.40;;;;;;5034377;28;20195;-51
2023/05/07 06:09:42;;;;;;;1.00;0.80;;;21.60;73.30;;;;;;5028912;28;20196;-53
2023/05/07 06:12:08;;;;;;;0.90;0.77;;;21.60;73.40;;;;;;5025479;28;20204;-58
2023/05/07 06:14:36;;;;;;;1.02;0.80;;;21.70;73.40;;;;;;5032000;28;20262;-57
2023/05/07 06:17:03;;;;;;;0.90;0.77;;;21.70;73.30;;;;;;5028523;28;20199;-53
2023/05/07 06:19:30;;;;;;;1.00;0.90;;;21.70;73.30;;;;;;5031719;28;20714;-54
2023/05/07 06:21:57;;;;;;;1.38;0.95;;;21.80;73.40;;;;;;5035170;28;20509;-56
2023/05/07 06:24:24;;;;;;;1.00;0.80;;;21.80;73.20;;;;;;5023720;28;20644;-50
2023/05/07 06:26:51;;;;;;;1.58;0.80;;;21.80;73.20;;;;;;5029748;28;20196;-51
2023/05/07 06:29:18;;;;;;;1.10;0.90;;;21.80;73.10;;;;;;5021743;28;20201;-56
2023/05/07 06:31:46;;;;;;;1.10;0.90;;;21.80;73.10;;;;;;5029179;28;20648;-53
2023/05/07 06:34:14;;;;;;;0.90;0.77;;;21.80;73.10;;;;;;5035610;28;20192;-56
2023/05/07 06:36:40;;;;;;;1.00;0.90;;;21.80;73.80;;;;;;5036231;28;20203;-59
2023/05/07 06:39:07;;;;;;;0.80;0.70;;;21.80;73.00;;;;;;5032213;28;20499;-54
2023/05/07 06:41:35;;;;;;;0.90;0.80;;;21.90;73.10;;;;;;5037335;28;20459;-55
2023/05/07 06:44:02;;;;;;;1.48;0.73;;;21.80;72.90;;;;;;5035442;28;20479;-53
2023/05/07 06:46:28;;;;;;;0.90;0.80;;;21.80;72.90;;;;;;5023507;28;20230;-53
2023/05/07 06:48:57;;;;;;;1.10;0.85;;;21.90;73.00;;;;;;5027220;28;20450;-54
2023/05/07 06:51:23;;;;;;;1.10;0.90;;;21.80;72.90;;;;;;5032000;28;20227;-59
2023/05/07 06:53:50;;;;;;;1.03;0.87;;;21.90;73.00;;;;;;5031634;28;20497;-51
2023/05/07 06:56:17;;;;;;;1.10;0.80;;;21.80;72.80;;;;;;5035314;28;20507;-53
2023/05/07 06:58:43;;;;;;;1.10;0.90;;;21.80;72.80;;;;;;5028484;28;20446;-50
2023/05/07 07:01:10;;;;;;;1.00;0.80;;;21.80;72.80;;;;;;5033128;28;20234;-54
2023/05/07 07:03:37;;;;;;;1.07;0.90;;;21.80;72.70;;;;;;5032022;28;20530;-56
2023/05/07 07:06:05;;;;;;;2.30;1.27;;;21.80;72.90;;;;;;5031537;28;20458;-55
2023/05/07 07:08:32;;;;;;;1.17;1.00;;;21.80;73.10;;;;;;5030228;28;20674;-54
2023/05/07 07:10:58;;;;;;;2.28;1.40;;;21.80;73.00;;;;;;5023302;28;20626;-56
2023/05/07 07:13:25;;;;;;;1.52;1.30;;;21.80;73.00;;;;;;5019920;28;20594;-60
2023/05/07 07:15:52;;;;;;;1.30;0.80;;;21.80;73.40;;;;;;5023687;28;20623;-63
2023/05/07 07:18:20;;;;;;;1.23;1.10;;;21.90;73.40;;;;;;5031151;28;20470;-63
2023/05/07 07:20:46;;;;;;;1.40;1.27;;;21.90;73.50;;;;;;5020963;28;20476;-53
2023/05/07 07:23:14;;;;;;;1.33;1.23;;;21.80;73.20;;;;;;5025202;28;20483;-58
2023/05/07 07:25:41;;;;;;;1.85;1.35;;;21.80;73.90;;;;;;5026608;28;20551;-53
2023/05/07 07:28:08;;;;;;;2.08;1.20;;;21.70;72.90;;;;;;5030605;28;20191;-53
2023/05/07 07:30:35;;;;;;;1.30;1.20;;;21.80;73.10;;;;;;5025693;28;20968;-55
2023/05/07 07:33:02;;;;;;;1.80;1.50;;;21.80;73.10;;;;;;5021036;28;20195;-56
2023/05/07 07:35:29;;;;;;;2.30;1.70;;;21.70;72.90;;;;;;5022566;28;20222;-53
2023/05/07 07:37:56;;;;;;;6.38;1.65;;;21.80;73.10;;;;;;5025718;28;20616;-49
2023/05/07 07:40:25;;;;;;;1.50;1.40;;;21.80;73.10;;;;;;5028154;28;20199;-50
2023/05/07 07:42:51;;;;;;;1.53;1.43;;;21.80;73.10;;;;;;5023792;28;20498;-53
2023/05/07 07:45:18;;;;;;;2.17;1.98;;;21.80;73.10;;;;;;5024084;28;20466;-50
2023/05/07 07:47:45;;;;;;;2.63;1.27;;;21.80;72.90;;;;;;5017365;28;20195;-56
2023/05/07 07:50:12;;;;;;;2.30;1.40;;;21.80;72.90;;;;;;5025006;28;20462;-60
2023/05/07 07:52:39;;;;;;;2.53;2.00;;;21.80;72.90;;;;;;5021274;28;20258;-57
2023/05/07 07:55:07;;;;;;;2.30;1.60;;;21.80;72.90;;;;;;5028069;28;20832;-54
2023/05/07 07:57:35;;;;;;;1.80;1.33;;;21.80;72.80;;;;;;5023915;28;20979;-58
2023/05/07 08:00:02;;;;;;;1.63;1.53;;;21.80;73.80;;;;;;5019969;28;20656;-57
2023/05/07 08:02:28;;;;;;;1.77;1.57;;;21.80;72.80;;;;;;5017915;28;20486;-57
2023/05/07 08:04:55;;;;;;;1.40;1.30;;;21.80;72.80;;;;;;5026913;28;20466;-59
2023/05/07 08:07:22;;;;;;;1.50;1.40;;;21.80;72.80;;;;;;5026793;28;20840;-55
2023/05/07 08:09:49;;;;;;;1.60;1.50;;;21.80;72.80;;;;;;5026452;28;20557;-55
2023/05/07 08:12:16;;;;;;;3.70;3.10;;;21.80;72.70;;;;;;5028511;28;20461;-59
2023/05/07 08:14:44;;;;;;;5.83;5.23;;;21.80;72.90;;;;;;5026541;28;20455;-52
2023/05/07 08:17:11;;;;;;;7.77;5.53;;;21.80;73.90;;;;;;5031379;28;20516;-51
2023/05/07 08:19:38;;;;;;;6.63;4.87;;;21.90;75.10;;;;;;5029053;28;20873;-56
2023/05/07 08:22:05;;;;;;;3.83;3.50;;;21.80;75.10;;;;;;5019821;28;20489;-52
2023/05/07 08:24:32;;;;;;;3.43;3.10;;;21.90;75.50;;;;;;5031531;28;20816;-54
2023/05/07 08:26:58;;;;;;;3.03;2.50;;;21.80;75.10;;;;;;5029219;28;20522;-57
2023/05/07 08:29:25;;;;;;;2.60;2.40;;;21.90;75.50;;;;;;5029427;28;20489;-52
2023/05/07 08:31:53;;;;;;;2.73;2.37;;;21.90;75.40;;;;;;5022537;28;20462;-58
2023/05/07 08:34:20;;;;;;;2.70;2.08;;;21.90;75.50;;;;;;5029927;28;20494;-55
2023/05/07 08:36:48;;;;;;;2.03;1.90;;;21.90;75.00;;;;;;5030896;28;20204;-53
2023/05/07 08:39:15;;;;;;;2.47;2.27;;;21.90;74.70;;;;;;5031410;28;20263;-62
2023/05/07 08:41:45;;;;;;;3.17;2.00;;;21.90;74.40;;;;;;5025887;28;20463;-56
2023/05/07 08:44:13;;;;;;;2.17;2.00;;;21.90;74.00;;;;;;5027483;28;20483;-54
2023/05/07 08:46:41;;;;;;;2.40;2.20;;;21.90;74.50;;;;;;5023553;28;20455;-54
2023/05/07 08:49:09;;;;;;;2.03;1.77;;;21.90;74.30;;;;;;5029393;28;20455;-56
2023/05/07 08:51:37;;;;;;;3.70;2.13;;;21.90;74.30;;;;;;5026411;28;21273;-56
2023/05/07 08:54:04;;;;;;;2.50;2.10;;;22.00;74.30;;;;;;5029415;28;20465;-51
2023/05/07 08:56:31;;;;;;;2.90;2.30;;;21.90;74.00;;;;;;5029247;28;20477;-54
2023/05/07 08:58:58;;;;;;;2.20;2.00;;;22.00;74.10;;;;;;5025795;28;20479;-55
2023/05/07 09:01:25;;;;;;;2.17;2.07;;;22.00;74.10;;;;;;5021043;28;20894;-54
2023/05/07 09:03:53;;;;;;;3.50;2.20;;;22.00;74.00;;;;;;5029820;28;20513;-54
2023/05/07 09:06:22;;;;;;;2.90;2.70;;;22.00;73.90;;;;;;5028467;28;20492;-58
2023/05/07 09:08:52;;;;;;;1.93;1.60;;;22.00;73.90;;;;;;5026039;28;20467;-54
2023/05/07 09:11:22;;;;;;;2.00;1.90;;;22.00;73.70;;;;;;5024969;28;20465;-54
2023/05/07 09:13:48;;;;;;;2.37;2.17;;;22.00;74.50;;;;;;5021396;28;20491;-59
2023/05/07 09:16:16;;;;;;;5.20;2.22;;;22.00;73.60;;;;;;5024840;28;20458;-53
2023/05/07 09:18:43;;;;;;;3.20;2.80;;;22.00;73.80;;;;;;5025766;28;20250;-55
2023/05/07 09:21:11;;;;;;;4.00;2.63;;;22.00;74.80;;;;;;5035096;28;20873;-52
2023/05/07 09:23:40;;;;;;;3.97;2.50;;;22.00;75.20;;;;;;5025119;28;20874;-59
2023/05/07 09:26:11;;;;;;;5.10;2.90;;;22.00;75.00;;;;;;5028889;28;20549;-52
2023/05/07 09:28:39;;;;;;;3.23;2.93;;;22.00;75.30;;;;;;5030490;28;20460;-52
2023/05/07 09:31:06;;;;;;;3.60;3.23;;;22.00;75.40;;;;;;5014328;28;20459;-58
2023/05/07 09:33:33;;;;;;;2.93;2.70;;;22.00;75.60;;;;;;5028516;28;20462;-57
2023/05/07 09:36:02;;;;;;;4.37;3.47;;;21.90;75.40;;;;;;5029834;28;20983;-57
2023/05/07 09:38:29;;;;;;;3.17;2.53;;;22.00;75.70;;;;;;5036439;28;20485;-54
2023/05/07 09:41:05;;;;;;;3.50;2.80;;;21.90;75.40;;;;;;5032953;28;20794;-51
2023/05/07 09:43:35;;;;;;;2.60;2.40;;;22.00;75.50;;;;;;5031156;28;20478;-57
2023/05/07 09:46:06;;;;;;;4.63;2.80;;;22.00;75.40;;;;;;5023679;28;20974;-62
2023/05/07 09:48:35;;;;;;;5.13;2.40;;;22.00;75.60;;;;;;5023703;28;20459;-57
2023/05/07 09:51:07;;;;;;;3.87;3.20;;;22.00;75.70;;;;;;5027337;28;20521;-61
2023/05/07 09:53:35;;;;;;;7.57;2.33;;;22.10;75.70;;;;;;5025558;28;20886;-54
2023/05/07 09:56:04;;;;;;;9.52;2.65;;;22.10;75.80;;;;;;5023835;28;20463;-62
2023/05/07 09:58:32;;;;;;;2.50;2.30;;;22.00;75.90;;;;;;5022046;28;20204;-57
2023/05/07 10:00:59;;;;;;;4.47;2.77;;;22.10;75.40;;;;;;5024414;28;20501;-60
2023/05/07 10:03:28;;;;;;;4.70;3.10;;;22.10;75.50;;;;;;5024262;28;20482;-59
2023/05/07 10:05:57;;;;;;;2.93;2.20;;;22.10;75.70;;;;;;5023949;28;20463;-62
2023/05/07 10:08:24;;;;;;;2.90;2.37;;;22.10;75.70;;;;;;5024195;28;20463;-64
2023/05/07 10:10:51;;;;;;;2.70;2.50;;;22.20;75.80;;;;;;5028189;28;20497;-63
2023/05/07 10:13:20;;;;;;;2.57;2.37;;;22.20;75.80;;;;;;5027991;28;20490;-54
2023/05/07 10:15:48;;;;;;;5.10;2.63;;;22.20;75.90;;;;;;5026262;28;20545;-59
2023/05/07 10:18:16;;;;;;;3.63;2.70;;;22.30;76.00;;;;;;5034156;28;20467;-64
2023/05/07 10:20:46;;;;;;;2.47;2.27;;;22.30;76.10;;;;;;5031497;28;22971;-60
2023/05/07 10:23:18;;;;;;;4.90;2.70;;;22.30;76.10;;;;;;5033131;28;20470;-56
2023/05/07 10:25:46;;;;;;;3.50;2.53;;;22.30;76.00;;;;;;5028124;28;21249;-57
2023/05/07 10:28:13;;;;;;;3.00;2.00;;;22.40;76.00;;;;;;5031654;28;20477;-64
2023/05/07 10:30:56;;;;;;;2.40;2.20;;;22.40;76.10;;;;;;5020153;28;20463;-64
2023/05/07 10:33:26;;;;;;;2.33;2.10;;;22.40;76.20;;;;;;5024958;28;20466;-61
2023/05/07 10:35:58;;;;;;;2.67;1.80;;;22.50;76.30;;;;;;5022835;28;20501;-58
2023/05/07 10:38:26;;;;;;;2.60;1.93;;;22.50;76.40;;;;;;5028703;28;20455;-64
2023/05/07 10:40:52;;;;;;;6.23;2.23;;;22.50;76.10;;;;;;5021956;28;20460;-64
2023/05/07 10:43:19;;;;;;;2.40;2.20;;;22.60;76.40;;;;;;5019386;28;20485;-73
2023/05/07 10:46:11;;;;;;;2.40;2.20;;;22.60;76.30;;;;;;5025755;28;20523;-67
2023/05/07 10:49:12;;;;;;;2.20;2.00;;;22.70;76.30;;;;;;5022608;28;20887;-64
2023/05/07 10:51:39;;;;;;;4.60;2.63;;;22.70;76.40;;;;;;5023672;28;20458;-62
2023/05/07 10:54:23;;;;;;;4.57;3.10;;;22.70;77.00;;;;;;5025734;28;20554;-61
2023/05/07 10:56:50;;;;;;;9.23;4.00;;;22.70;77.30;;;;;;5017062;28;20830;-61
2023/05/07 10:59:40;;;;;;;5.30;3.60;;;22.60;76.80;;;;;;5020420;28;20462;-65
2023/05/07 11:02:09;;;;;;;3.73;3.10;;;22.60;77.20;;;;;;5024209;28;20461;-63
2023/05/07 11:04:38;;;;;;;4.93;2.50;;;22.60;77.20;;;;;;5029158;28;20490;-53
2023/05/07 11:07:27;;;;;;;9.40;3.73;;;22.60;77.30;;;;;;5026634;28;20512;-54
2023/05/07 11:10:05;;;;;;;3.80;3.33;;;22.70;77.50;;;;;;5032627;28;20465;-57
2023/05/07 11:12:54;;;;;;;5.73;3.07;;;22.70;77.10;;;;;;5028073;28;20458;-61
2023/05/07 11:15:51;;;;;;;6.80;3.40;;;22.70;77.00;;;;;;5026959;28;20841;-65
2023/05/07 11:18:19;;;;;;;6.17;2.50;;;22.70;77.20;;;;;;4944502;29;20466;-62
2023/05/07 11:20:52;;;;;;;6.47;4.03;;;22.70;76.80;;;;;;5008189;28;20484;-61
2023/05/07 11:24:00;;;;;;;8.40;4.17;;;22.70;76.70;;;;;;5030089;28;20503;-71
2023/05/07 11:26:28;;;;;;;4.17;2.30;;;22.80;76.70;;;;;;5026043;28;20462;-55
2023/05/07 11:28:56;;;;;;;5.43;3.03;;;22.70;77.40;;;;;;5028992;28;20544;-51
2023/05/07 11:31:25;;;;;;;3.23;2.93;;;22.80;76.60;;;;;;5021834;28;20496;-62
2023/05/07 11:33:53;;;;;;;3.50;2.83;;;22.80;76.60;;;;;;5035540;28;20466;-65
2023/05/07 11:36:22;;;;;;;6.43;5.20;;;22.80;76.60;;;;;;5029824;28;20962;-62
2023/05/07 11:38:49;;;;;;;4.17;3.40;;;22.80;76.40;;;;;;5035017;28;20465;-64
2023/05/07 11:41:19;;;;;;;5.37;3.00;;;22.80;76.10;;;;;;5028387;28;20946;-59
2023/05/07 11:43:59;;;;;;;11.60;3.73;;;22.80;76.40;;;;;;5027341;28;20573;-57
2023/05/07 11:46:27;;;;;;;6.07;2.83;;;22.80;77.00;;;;;;5029731;28;20459;-60
2023/05/07 11:48:53;;;;;;;4.70;3.10;;;22.80;76.60;;;;;;5029877;28;20466;-59
2023/05/07 11:51:23;;;;;;;3.53;3.03;;;22.90;76.50;;;;;;5030446;28;20466;-61
2023/05/07 11:53:50;;;;;;;4.37;3.17;;;22.90;76.50;;;;;;5030617;28;20828;-56
2023/05/07 11:56:19;;;;;;;2.40;2.20;;;22.90;76.60;;;;;;5026087;28;20467;-61
2023/05/07 11:58:47;;;;;;;5.13;3.57;;;22.90;76.40;;;;;;5026506;28;20839;-61
2023/05/07 12:01:15;;;;;;;4.80;3.10;;;22.90;76.40;;;;;;5020205;28;20463;-59
2023/05/07 12:03:43;;;;;;;3.73;3.17;;;22.90;76.20;;;;;;5028895;28;20466;-67
2023/05/07 12:06:11;;;;;;;3.90;3.00;;;22.90;76.30;;;;;;5034592;28;20855;-60
2023/05/07 12:08:41;;;;;;;3.30;3.00;;;23.00;76.50;;;;;;5030993;28;20573;-59
2023/05/07 12:11:13;;;;;;;4.57;3.20;;;23.00;76.70;;;;;;5028873;28;21188;-62
2023/05/07 12:13:40;;;;;;;6.13;3.43;;;23.00;76.70;;;;;;5031651;28;20524;-64
2023/05/07 12:16:07;;;;;;;5.83;3.33;;;23.00;76.40;;;;;;5026479;28;20459;-60
2023/05/07 12:18:36;;;;;;;5.10;3.60;;;23.00;76.70;;;;;;5037342;28;20469;-62
2023/05/07 12:21:04;;;;;;;4.53;3.50;;;23.00;76.70;;;;;;5025552;28;20466;-58
2023/05/07 12:23:31;;;;;;;7.70;3.50;;;23.00;76.60;;;;;;5024208;28;20536;-62
2023/05/07 12:26:00;;;;;;;6.20;3.90;;;23.10;76.70;;;;;;5030299;28;20947;-58
2023/05/07 12:28:27;;;;;;;4.17;3.70;;;23.10;76.90;;;;;;5032152;28;20463;-57
2023/05/07 12:30:54;;;;;;;4.10;3.80;;;23.10;77.00;;;;;;5018762;28;20478;-64
2023/05/07 12:33:27;;;;;;;3.80;3.50;;;23.10;76.80;;;;;;5027499;28;20465;-64
2023/05/07 12:35:56;;;;;;;3.83;3.50;;;23.10;76.80;;;;;;5032540;28;20466;-66
2023/05/07 12:38:23;;;;;;;5.27;3.93;;;23.20;77.40;;;;;;5029150;28;20894;-67
2023/05/07 12:40:51;;;;;;;4.53;4.13;;;23.20;77.10;;;;;;5029642;28;20458;-66
2023/05/07 12:43:20;;;;;;;4.33;3.53;;;23.20;77.10;;;;;;5026682;28;20532;-67
2023/05/07 12:45:50;;;;;;;3.60;3.30;;;23.20;77.10;;;;;;5025745;28;20488;-64
2023/05/07 12:48:17;;;;;;;4.10;3.63;;;23.20;77.00;;;;;;5029321;28;20455;-65
2023/05/07 12:50:44;;;;;;;4.90;3.33;;;23.20;76.90;;;;;;5031327;28;20450;-63
2023/05/07 12:53:12;;;;;;;4.70;2.90;;;23.20;76.90;;;;;;5030668;28;20509;-64